Time;durP1;ratioP1;P1;durP2;ratioP2;P2;SDS_P1;SDS_P2;PMS_P1;PMS_P2;Temp;Humidity;BMP_temperature;BMP_pressure;BME280_temperature;BME280_humidity;BME280_pressure;Samples;Min_cycle;Max_cycle;Signal;HPM_P1;HPM_P2
2022/05/27 04:40:11;;;;;;;4.65;1.80;;;;;;;15.72;69.91;100077.56;1741759;82;21105;-48
2022/05/27 04:42:38;;;;;;;4.78;2.00;;;;;;;15.79;70.12;100064.17;1742346;81;22520;-42
2022/05/27 04:45:06;;;;;;;4.35;1.77;;;;;;;15.87;69.22;100069.25;1725581;82;21541;-48
2022/05/27 04:47:32;;;;;;;7.85;2.37;;;;;;;15.94;69.16;100065.13;1722930;81;21093;-50
2022/05/27 04:50:00;;;;;;;4.45;2.50;;;;;;;16.03;68.73;100065.77;1740843;81;21463;-49
2022/05/27 04:52:31;;;;;;;3.92;2.02;;;;;;;16.10;69.19;100073.48;1741610;81;21605;-42
2022/05/27 04:55:02;;;;;;;2.33;1.67;;;;;;;16.17;68.79;100070.23;1723046;81;21062;-48
2022/05/27 04:57:34;;;;;;;3.15;2.55;;;;;;;16.25;68.48;100070.91;1718827;82;21322;-48
2022/05/27 05:00:03;;;;;;;;;;;;;;;16.34;68.81;100072.42;1731652;81;21054;-42
2022/05/27 05:02:30;;;;;;;3.77;1.87;;;;;;;16.41;69.51;100068.27;1740302;82;20115;-49
2022/05/27 05:04:57;;;;;;;5.35;2.02;;;;;;;16.47;69.11;100078.66;1727081;82;21021;-48
2022/05/27 05:07:25;;;;;;;2.02;1.80;;;;;;;16.54;68.63;100080.67;1721478;82;21560;-49
2022/05/27 05:09:51;;;;;;;2.20;1.60;;;;;;;16.62;69.03;100089.23;1721905;82;21430;-41
2022/05/27 05:12:24;;;;;;;2.10;1.87;;;;;;;16.71;68.81;100086.84;1728873;81;21050;-43
2022/05/27 05:14:51;;;;;;;;;;;;;;;16.80;68.43;100090.52;1744290;82;21092;-41
2022/05/27 05:17:17;;;;;;;2.37;1.60;;;;;;;16.88;68.36;100096.92;1741481;81;20107;-49
2022/05/27 05:19:45;;;;;;;3.77;1.95;;;;;;;16.96;67.80;100099.73;1741757;82;21033;-48
2022/05/27 05:22:12;;;;;;;3.40;1.85;;;;;;;17.05;67.43;100101.69;1742050;82;21057;-42
2022/05/27 05:24:39;;;;;;;4.60;1.95;;;;;;;17.14;67.09;100093.50;1741789;82;21573;-48
2022/05/27 05:27:06;;;;;;;3.12;1.55;;;;;;;17.21;67.00;100093.26;1742226;81;21041;-41
2022/05/27 05:29:32;;;;;;;4.05;1.90;;;;;;;17.30;67.40;100093.45;1741672;82;21033;-41
2022/05/27 05:32:00;;;;;;;3.47;1.62;;;;;;;17.38;66.33;100094.06;1741706;82;20966;-49
2022/05/27 05:34:26;;;;;;;3.52;1.50;;;;;;;17.44;64.88;100093.02;1738719;82;21556;-50
2022/05/27 05:36:54;;;;;;;3.02;1.30;;;;;;;17.48;64.58;100082.30;1740583;81;21068;-47
2022/05/27 05:39:21;;;;;;;5.12;1.85;;;;;;;17.51;64.65;100085.28;1735374;81;21600;-47
2022/05/27 05:41:57;;;;;;;3.35;1.50;;;;;;;17.57;64.85;100082.48;1734715;82;21086;-47
2022/05/27 05:44:23;;;;;;;4.80;1.57;;;;;;;17.66;64.37;100078.66;1730972;82;21588;-41
2022/05/27 05:46:51;;;;;;;3.35;1.60;;;;;;;17.73;62.33;100080.20;1733898;82;21495;-41
2022/05/27 05:49:18;;;;;;;1.80;1.47;;;;;;;17.78;60.71;100088.87;1727839;82;21053;-47
2022/05/27 05:51:46;;;;;;;5.35;1.50;;;;;;;17.83;61.06;100086.94;1734885;82;20997;-46
2022/05/27 05:54:12;;;;;;;2.37;1.40;;;;;;;17.90;60.74;100096.86;1738124;82;21072;-41
2022/05/27 05:56:39;;;;;;;3.10;1.30;;;;;;;17.97;60.83;100091.30;1735039;82;20937;-48
2022/05/27 05:59:05;;;;;;;6.83;1.60;;;;;;;18.03;59.97;100088.91;1737659;82;21049;-41
2022/05/27 06:01:32;;;;;;;1.90;1.77;;;;;;;18.09;60.51;100090.05;1720513;82;21010;-41
2022/05/27 06:03:58;;;;;;;4.72;1.17;;;;;;;18.16;59.92;100085.41;1717997;82;21509;-41
2022/05/27 06:06:25;;;;;;;4.50;1.30;;;;;;;18.19;57.38;100098.52;1729131;82;21016;-47
2022/05/27 06:08:52;;;;;;;6.72;1.17;;;;;;;18.19;59.02;100100.70;1732218;82;21533;-47
2022/05/27 06:11:18;;;;;;;1.40;1.15;;;;;;;18.23;59.88;100094.40;1703242;82;21450;-48
2022/05/27 06:13:47;;;;;;;1.27;0.98;;;;;;;18.32;59.18;100089.23;1732035;81;21056;-48
2022/05/27 06:16:13;;;;;;;3.05;1.20;;;;;;;18.41;58.21;100083.62;1711321;82;20988;-42
2022/05/27 06:18:42;;;;;;;2.40;1.20;;;;;;;18.49;58.07;100089.95;1720507;82;21038;-42
2022/05/27 06:21:09;;;;;;;1.85;1.00;;;;;;;18.57;58.60;100089.24;1718515;82;21045;-42
2022/05/27 06:23:35;;;;;;;1.92;1.10;;;;;;;18.65;57.78;100098.23;1723667;80;21033;-47
2022/05/27 06:26:06;;;;;;;1.30;1.15;;;;;;;18.70;57.14;100094.52;1737816;82;20986;-40
2022/05/27 06:34:47;;;;;;;2.52;1.22;;;;;;;18.90;58.06;100088.94;1730146;82;21052;-41
2022/05/27 06:36:33;;;;;;;2.08;1.40;;;;;;;18.96;57.39;100098.88;1712263;82;21065;-47
2022/05/27 06:38:59;;;;;;;2.67;1.10;;;;;;;19.00;57.71;100094.30;1742036;81;21540;-47
2022/05/27 06:41:26;;;;;;;4.25;0.90;;;;;;;19.03;56.36;100092.41;1751101;80;20969;-47
2022/05/27 06:43:52;;;;;;;1.98;1.20;;;;;;;19.02;55.06;100090.69;1754720;80;21017;-39
2022/05/27 06:46:21;;;;;;;1.60;1.05;;;;;;;19.01;56.22;100087.61;1752357;80;20986;-47
2022/05/27 06:48:48;;;;;;;4.00;1.32;;;;;;;19.04;56.56;100093.28;1755539;81;21683;-47
2022/05/27 06:51:14;;;;;;;4.33;1.15;;;;;;;19.08;55.81;100096.22;1747084;80;21033;-40
2022/05/27 06:53:42;;;;;;;1.95;1.02;;;;;;;19.11;55.52;100100.93;1755629;80;21059;-40
2022/05/27 06:56:09;;;;;;;3.60;0.90;;;;;;;19.18;55.15;100099.37;1738235;81;21023;-40
2022/05/27 06:58:37;;;;;;;3.83;1.10;;;;;;;19.20;55.00;100101.52;1750493;80;21512;-46
2022/05/27 07:01:04;;;;;;;3.15;1.20;;;;;;;19.23;54.79;100097.41;1749133;81;21017;-40
2022/05/27 07:03:31;;;;;;;2.47;1.30;;;;;;;19.28;56.72;100096.77;1752726;80;21092;-40
2022/05/27 07:05:57;;;;;;;2.22;1.20;;;;;;;19.36;55.03;100097.32;1753550;80;20982;-47
2022/05/27 07:08:24;;;;;;;8.35;2.37;;;;;;;19.40;55.23;100101.59;1754904;80;21092;-47
2022/05/27 07:10:51;;;;;;;2.10;0.82;;;;;;;19.42;55.29;100087.80;1736784;81;21016;-40
2022/05/27 07:13:18;;;;;;;1.15;1.00;;;;;;;19.46;54.01;100085.89;1755666;80;21167;-47
2022/05/27 07:15:45;;;;;;;3.02;1.22;;;;;;;19.55;53.00;100086.88;1756001;82;20993;-47
2022/05/27 07:18:11;;;;;;;3.35;1.20;;;;;;;19.57;52.08;100085.01;1755930;80;21655;-39
2022/05/27 07:20:40;;;;;;;2.05;1.00;;;;;;;19.59;51.76;100077.41;1755775;80;21501;-41
2022/05/27 07:23:08;;;;;;;6.65;1.05;;;;;;;19.65;52.80;100070.98;1756026;80;21135;-40
2022/05/27 07:25:35;;;;;;;3.00;1.37;;;;;;;19.74;53.64;100075.07;1755955;80;21020;-47
2022/05/27 07:28:06;;;;;;;7.80;1.55;;;;;;;19.82;52.10;100071.63;1755728;80;21076;-47
2022/05/27 07:30:34;;;;;;;3.10;1.20;;;;;;;19.86;52.13;100073.23;1730032;81;21018;-40
2022/05/27 07:33:00;;;;;;;2.22;0.90;;;;;;;19.90;51.11;100066.41;1755319;82;21145;-40
2022/05/27 07:35:27;;;;;;;3.77;1.20;;;;;;;19.92;50.91;100071.18;1754514;81;21032;-39
2022/05/27 07:37:54;;;;;;;1.30;1.00;;;;;;;19.96;49.72;100061.31;1732494;80;21044;-47
2022/05/27 07:40:21;;;;;;;2.47;1.15;;;;;;;20.01;49.58;100060.66;1757961;81;21072;-47
2022/05/27 07:42:48;;;;;;;2.05;1.00;;;;;;;20.08;50.63;100063.91;1754195;80;21484;-40
2022/05/27 07:45:16;;;;;;;1.25;0.90;;;;;;;20.15;50.93;100059.58;1761044;80;21051;-46
2022/05/27 07:47:45;;;;;;;2.55;1.10;;;;;;;20.24;49.99;100057.01;1760137;79;21630;-47
2022/05/27 07:50:13;;;;;;;1.45;0.82;;;;;;;20.28;51.03;100067.87;1759112;80;21095;-46
2022/05/27 07:52:42;;;;;;;6.80;1.20;;;;;;;20.35;50.44;100068.47;1759293;80;21040;-40
2022/05/27 07:55:09;;;;;;;1.42;0.90;;;;;;;20.43;49.37;100067.69;1759516;80;21012;-47
2022/05/27 07:57:42;;;;;;;2.33;1.05;;;;;;;20.49;49.38;100065.26;1756054;80;21037;-47
2022/05/27 08:00:12;;;;;;;2.65;1.12;;;;;;;20.55;48.14;100071.63;1760863;80;21029;-47
2022/05/27 08:02:39;;;;;;;3.67;1.80;;;;;;;20.55;46.98;100079.12;1778578;79;21033;-47
2022/05/27 08:05:10;;;;;;;2.37;1.05;;;;;;;20.55;46.76;100057.87;1759715;80;21031;-47
2022/05/27 08:07:43;;;;;;;1.27;0.82;;;;;;;20.58;49.19;100056.39;1733023;81;21089;-47
2022/05/27 08:10:10;;;;;;;0.85;0.80;;;;;;;20.68;48.24;100064.82;1760039;80;21026;-47
2022/05/27 08:12:40;;;;;;;2.67;1.20;;;;;;;20.75;49.78;100068.92;1751554;80;21050;-47
2022/05/27 08:15:08;;;;;;;2.27;1.10;;;;;;;20.80;47.84;100050.11;1753490;80;21393;-47
2022/05/27 08:17:37;;;;;;;2.85;1.02;;;;;;;20.84;47.23;100051.70;1754383;80;21042;-46
2022/05/27 08:20:05;;;;;;;4.12;0.90;;;;;;;20.88;47.85;100050.64;1753934;80;21010;-48
2022/05/27 08:22:33;;;;;;;1.65;1.12;;;;;;;20.97;46.57;100055.04;1749333;80;21066;-47
2022/05/27 08:25:01;;;;;;;4.10;1.17;;;;;;;21.03;46.14;100055.69;1746856;80;21525;-47
2022/05/27 08:27:28;;;;;;;1.65;0.90;;;;;;;21.03;46.21;100065.00;1753516;80;21012;-47
2022/05/27 08:29:54;;;;;;;3.30;1.30;;;;;;;21.03;46.01;100055.22;1767546;80;21408;-47
2022/05/27 08:32:21;;;;;;;4.30;0.90;;;;;;;21.07;46.39;100054.16;1752626;80;21607;-47
2022/05/27 08:40:32;;;;;;;2.27;0.90;;;;;;;21.28;47.04;100041.64;1755227;80;21024;-47
2022/05/27 08:43:33;;;;;;;1.35;0.78;;;;;;;21.36;45.54;100051.47;1735287;80;20997;-47
2022/05/27 08:46:41;;;;;;;2.72;0.93;;;;;;;21.38;43.35;100044.73;1735600;80;20992;-47
2022/05/27 08:49:16;;;;;;;2.33;1.37;;;;;;;21.38;45.96;100040.74;1735885;80;21583;-47
2022/05/27 08:52:00;;;;;;;3.35;1.17;;;;;;;21.44;45.02;100044.43;1735145;80;21532;-47
2022/05/27 08:54:49;;;;;;;3.40;1.02;;;;;;;21.53;45.16;100040.48;1729207;80;21021;-47
2022/05/27 09:00:14;;;;;;;4.28;1.10;;;;;;;21.58;44.38;100043.30;1743771;80;21024;-47
2022/05/27 09:03:04;;;;;;;1.92;1.20;;;;;;;21.60;44.07;100026.78;1739221;80;21040;-47
2022/05/27 09:05:40;;;;;;;1.70;0.93;;;;;;;21.63;45.62;100026.64;1720789;80;20993;-47
2022/05/27 09:08:22;;;;;;;1.00;0.62;;;;;;;21.72;45.98;100023.50;1742652;80;21852;-47
2022/05/27 09:11:32;;;;;;;1.92;1.10;;;;;;;21.77;45.43;100031.27;1728217;82;21386;-47
2022/05/27 09:14:15;;;;;;;1.92;0.98;;;;;;;21.85;44.02;100034.39;1738989;80;21693;-47
2022/05/27 09:17:00;;;;;;;2.47;0.88;;;;;;;21.91;44.53;100023.90;1720583;80;20996;-48
2022/05/27 09:19:54;;;;;;;2.67;0.82;;;;;;;21.96;46.36;100012.07;1734840;80;21639;-40
2022/05/27 09:23:12;;;;;;;2.00;1.00;;;;;;;22.09;43.26;100018.09;1739842;80;21005;-40
2022/05/27 09:26:05;;;;;;;1.15;0.80;;;;;;;22.16;44.60;100005.77;1734570;80;21509;-47
2022/05/27 09:29:15;;;;;;;2.72;0.75;;;;;;;22.27;41.89;100014.53;1738058;80;21072;-47
2022/05/27 09:32:05;;;;;;;2.60;1.02;;;;;;;22.23;41.96;100014.29;1739193;80;21004;-47
2022/05/27 09:34:33;;;;;;;6.22;1.42;;;;;;;22.24;43.59;100001.35;1741017;80;21025;-47
2022/05/27 09:37:05;;;;;;;1.37;0.90;;;;;;;22.34;43.67;99989.75;1742000;80;21037;-40
2022/05/27 09:39:32;;;;;;;6.97;1.57;;;;;;;22.35;41.83;100001.65;1736599;80;21001;-40
2022/05/27 09:42:13;;;;;;;2.45;1.00;;;;;;;22.28;42.99;100007.78;1693352;82;21000;-41
2022/05/27 09:44:51;;;;;;;1.23;0.80;;;;;;;22.22;43.66;100001.44;1692837;82;20997;-39
2022/05/27 09:47:17;;;;;;;2.75;1.20;;;;;;;22.21;43.14;99998.39;1685696;82;20961;-40
2022/05/27 09:49:46;;;;;;;7.05;1.10;;;;;;;22.28;42.35;99998.92;1699895;82;21496;-40
2022/05/27 09:52:12;;;;;;;1.70;0.70;;;;;;;22.35;42.06;99988.80;1694038;82;20953;-40
2022/05/27 09:54:50;;;;;;;15.65;3.05;;;;;;;22.44;42.10;99980.29;1697056;82;21865;-40
2022/05/27 09:57:25;;;;;;;6.40;2.10;;;;;;;22.57;42.86;99991.56;1689371;82;20977;-40
2022/05/27 09:59:58;;;;;;;3.12;1.02;;;;;;;22.65;41.35;99978.28;1677833;82;28226;-40
2022/05/27 10:02:33;;;;;;;1.60;1.02;;;;;;;22.73;40.36;99979.59;1687479;82;21048;-39
2022/05/27 10:05:09;;;;;;;1.75;0.78;;;;;;;22.74;39.72;99971.98;1699891;82;21064;-47
2022/05/27 10:07:44;;;;;;;2.27;1.30;;;;;;;22.73;40.80;99974.27;1697086;82;21135;-40
2022/05/27 10:10:28;;;;;;;4.62;1.00;;;;;;;22.78;41.17;99972.64;1693483;82;21044;-47
2022/05/27 10:13:15;;;;;;;1.20;0.90;;;;;;;22.88;41.07;99954.38;1693169;82;21627;-47
2022/05/27 10:15:42;;;;;;;3.22;1.00;;;;;;;23.03;40.58;99949.52;1697419;82;21061;-47
2022/05/27 10:18:24;;;;;;;1.67;0.90;;;;;;;23.18;40.74;99940.61;1696447;82;21052;-47
2022/05/27 10:21:01;;;;;;;4.78;1.20;;;;;;;23.29;40.58;99962.20;1689600;82;21385;-47
2022/05/27 10:23:35;;;;;;;2.45;1.02;;;;;;;23.23;39.22;99949.70;1691931;81;21036;-47
2022/05/27 10:26:27;;;;;;;2.52;0.80;;;;;;;23.05;39.18;99948.47;1700864;82;21004;-47
2022/05/27 10:29:09;;;;;;;4.42;1.30;;;;;;;22.94;39.70;99937.55;1698186;82;21469;-47
2022/05/27 10:31:35;;;;;;;1.70;1.20;;;;;;;23.09;40.29;99931.83;1694245;82;20985;-47
2022/05/27 10:34:02;;;;;;;2.27;1.70;;;;;;;23.38;39.34;99938.62;1691878;82;21049;-47
2022/05/27 10:37:00;;;;;;;8.25;1.60;;;;;;;23.62;39.77;99927.38;1695369;82;20957;-47
2022/05/27 10:40:01;;;;;;;2.08;1.25;;;;;;;23.71;39.70;99915.27;1698381;82;21029;-47
2022/05/27 10:42:37;;;;;;;2.87;1.40;;;;;;;23.74;37.66;99917.77;1681093;83;21085;-47
2022/05/27 10:45:20;;;;;;;4.20;1.50;;;;;;;23.70;38.37;99915.37;1697627;81;21028;-41
2022/05/27 10:48:24;;;;;;;7.25;1.80;;;;;;;23.81;37.83;99896.41;1683216;84;21024;-40
2022/05/27 10:51:14;;;;;;;3.27;1.77;;;;;;;23.96;40.03;99913.33;1694913;84;21020;-40
2022/05/27 10:54:07;;;;;;;3.87;1.65;;;;;;;24.06;37.42;99899.78;1694644;81;21024;-40
2022/05/27 11:03:28;;;;;;;10.70;1.47;;;;;;;23.69;37.45;99887.81;1680698;84;21048;-40
2022/05/27 11:06:20;;;;;;;2.62;1.02;;;;;;;23.42;37.35;99900.95;1690015;83;21039;-47
2022/05/27 11:09:01;;;;;;;3.62;0.90;;;;;;;23.17;37.71;99892.69;1684932;85;21060;-40
2022/05/27 11:11:43;;;;;;;2.55;1.02;;;;;;;23.06;37.97;99893.30;1710027;82;21028;-46
2022/05/27 11:17:57;;;;;;;0.98;0.90;;;;;;;23.37;40.37;99880.38;1625522;88;20985;-40
2022/05/27 11:20:53;;;;;;;1.62;0.85;;;;;;;23.62;38.34;99884.66;1624397;88;21079;-41
2022/05/27 11:23:37;;;;;;;4.70;0.78;;;;;;;23.77;38.50;99892.23;1625664;88;21084;-41
2022/05/27 11:26:39;;;;;;;1.85;1.12;;;;;;;23.81;37.71;99885.72;1624813;88;21057;-41
2022/05/27 11:29:14;;;;;;;4.58;0.80;;;;;;;23.71;36.79;99884.55;1624005;88;21121;-45
2022/05/27 11:31:54;;;;;;;3.27;0.95;;;;;;;23.55;37.88;99888.63;1625742;88;21080;-42
2022/05/27 11:34:31;;;;;;;3.05;1.07;;;;;;;23.45;38.15;99872.77;1623792;87;21107;-39
2022/05/27 11:37:29;;;;;;;2.05;0.72;;;;;;;23.32;39.07;99875.31;1626356;88;21114;-41
2022/05/27 11:40:23;;;;;;;1.77;0.80;;;;;;;23.26;38.80;99873.48;1624952;86;21072;-41
2022/05/27 11:43:16;;;;;;;4.60;0.82;;;;;;;23.27;37.86;99884.05;1630307;86;21109;-46
2022/05/27 11:46:03;;;;;;;2.25;1.00;;;;;;;;;;1626845;86;21121;-46
2022/05/27 11:48:56;;;;;;;3.85;0.90;;;;;;;23.39;39.33;99866.45;1545562;91;21684;-40
2022/05/27 11:51:52;;;;;;;;;;;;;;;23.50;38.27;99879.16;1575319;90;21109;-40
2022/05/27 11:54:51;;;;;;;3.70;1.02;;;;;;;23.55;37.68;99864.59;1571757;91;20105;-47
2022/05/27 11:57:46;;;;;;;2.52;0.90;;;;;;;23.60;38.20;99870.52;1617947;89;21086;-47
2022/05/27 12:00:19;;;;;;;1.70;1.10;;;;;;;23.68;37.93;99877.23;1617242;87;21642;-46
2022/05/27 12:03:03;;;;;;;1.77;0.70;;;;;;;23.72;37.09;99856.08;1597030;89;21106;-40
2022/05/27 12:05:53;;;;;;;1.75;0.72;;;;;;;23.78;37.57;99845.02;1617764;88;21160;-43
2022/05/27 12:08:49;;;;;;;1.72;0.82;;;;;;;23.89;38.14;99856.75;1617194;87;21118;-39
